Time;durP1;ratioP1;P1;durP2;ratioP2;P2;SDS_P1;SDS_P2;PMS_P1;PMS_P2;Temp;Humidity;BMP_temperature;BMP_pressure;BME280_temperature;BME280_humidity;BME280_pressure;Samples;Min_cycle;Max_cycle;Signal;HPM_P1;HPM_P2
2023/02/16 00:00:19;;;;;;;64.53;45.10;;;4.70;99.90;;;;;;7369636;19;20015;-62
2023/02/16 00:02:45;;;;;;;68.85;46.40;;;4.60;99.90;;;;;;7368852;19;20090;-63
2023/02/16 00:05:25;;;;;;;67.53;44.22;;;4.70;99.90;;;;;;7368190;19;20024;-62
2023/02/16 00:07:53;;;;;;;66.45;47.00;;;4.70;99.90;;;;;;7370904;19;20022;-63
2023/02/16 00:10:19;;;;;;;65.78;45.13;;;4.80;99.90;;;;;;7370365;19;20018;-62
2023/02/16 00:15:31;;;;;;;68.55;46.33;;;4.80;99.90;;;;;;7370946;19;20026;-62
2023/02/16 00:17:59;;;;;;;66.45;44.72;;;4.80;99.90;;;;;;7369847;19;20351;-63
2023/02/16 00:20:31;;;;;;;65.55;44.13;;;4.80;99.90;;;;;;7371662;19;21359;-63
2023/02/16 00:22:57;;;;;;;63.30;45.13;;;4.80;99.90;;;;;;7369743;19;20014;-62
2023/02/16 00:25:24;;;;;;;69.72;44.15;;;4.80;99.90;;;;;;7370790;19;20067;-62
2023/02/16 00:27:51;;;;;;;67.88;45.92;;;4.80;99.90;;;;;;7374018;19;20018;-62
2023/02/16 00:30:20;;;;;;;62.42;44.53;;;4.80;99.90;;;;;;7377165;19;20018;-63
2023/02/16 00:32:49;;;;;;;63.67;43.20;;;4.70;99.90;;;;;;7372841;19;20018;-63
2023/02/16 00:35:16;;;;;;;66.03;44.97;;;4.60;99.90;;;;;;7374844;19;20390;-63
2023/02/16 00:37:43;;;;;;;65.85;45.28;;;4.60;99.90;;;;;;7379697;19;20039;-63
2023/02/16 00:40:12;;;;;;;69.28;44.15;;;4.50;99.90;;;;;;7379027;19;20026;-63
2023/02/16 00:42:41;;;;;;;68.05;44.08;;;4.50;99.90;;;;;;7378961;19;21098;-62
2023/02/16 00:45:21;;;;;;;64.55;44.17;;;4.40;99.90;;;;;;7377603;19;20010;-62
2023/02/16 00:47:53;;;;;;;64.65;44.30;;;4.40;99.90;;;;;;7377531;19;20024;-62
2023/02/16 00:50:23;;;;;;;67.90;46.28;;;4.30;99.90;;;;;;7380693;19;20781;-62
2023/02/16 00:52:57;;;;;;;63.78;43.33;;;4.30;99.90;;;;;;7376161;19;20014;-62
2023/02/16 00:55:27;;;;;;;67.03;47.78;;;4.30;99.90;;;;;;7375441;19;20614;-62
2023/02/16 00:58:23;;;;;;;66.07;45.08;;;4.30;99.90;;;;;;7377538;19;20015;-62
2023/02/16 01:00:57;;;;;;;66.25;45.55;;;4.20;99.90;;;;;;7376815;19;20021;-62
2023/02/16 01:03:28;;;;;;;68.57;44.95;;;4.10;99.90;;;;;;7373626;19;20086;-62
2023/02/16 01:11:32;;;;;;;65.00;44.25;;;4.10;99.90;;;;;;7376402;19;20014;-63
2023/02/16 01:13:58;;;;;;;68.53;45.63;;;4.00;99.90;;;;;;7371934;19;20717;-63
2023/02/16 01:16:34;;;;;;;68.90;47.05;;;4.00;99.90;;;;;;7372269;19;20686;-63
2023/02/16 01:19:00;;;;;;;66.82;46.97;;;4.10;99.90;;;;;;7370768;19;20018;-63
2023/02/16 01:21:26;;;;;;;69.20;46.97;;;4.10;99.90;;;;;;7371869;19;20085;-63
2023/02/16 01:23:54;;;;;;;62.83;43.83;;;4.00;99.90;;;;;;7370925;19;20018;-63
2023/02/16 01:26:20;;;;;;;66.50;44.90;;;4.00;99.90;;;;;;7370885;19;20018;-63
2023/02/16 01:28:51;;;;;;;64.93;45.78;;;3.90;99.90;;;;;;7375264;19;20688;-63
2023/02/16 01:31:17;;;;;;;70.90;46.45;;;4.00;99.90;;;;;;7373318;19;20073;-63
2023/02/16 01:33:44;;;;;;;66.03;46.67;;;3.90;99.90;;;;;;7371148;19;20018;-63
2023/02/16 01:36:27;;;;;;;67.97;47.65;;;3.90;99.90;;;;;;7369930;19;20461;-63
2023/02/16 01:38:53;;;;;;;67.82;46.33;;;3.90;99.90;;;;;;7376223;19;20496;-63
2023/02/16 01:41:41;;;;;;;67.68;44.85;;;3.90;99.90;;;;;;7377486;19;20384;-63
2023/02/16 01:44:19;;;;;;;74.07;46.97;;;3.90;99.90;;;;;;7372077;19;20037;-63
2023/02/16 01:46:55;;;;;;;71.15;49.80;;;3.90;99.90;;;;;;7376936;19;20014;-63
2023/02/16 01:49:21;;;;;;;69.22;46.42;;;3.90;99.90;;;;;;7372320;19;20041;-63
2023/02/16 01:51:55;;;;;;;71.93;49.28;;;3.80;99.90;;;;;;7372993;19;20634;-63
2023/02/16 01:54:31;;;;;;;67.05;44.60;;;3.80;99.90;;;;;;7372435;19;20469;-63
2023/02/16 01:57:05;;;;;;;75.60;47.90;;;3.80;99.90;;;;;;7359837;19;20694;-63
2023/02/16 01:59:38;;;;;;;68.18;48.75;;;3.90;99.90;;;;;;7374750;19;20021;-63
2023/02/16 02:02:17;;;;;;;76.10;48.42;;;3.90;99.90;;;;;;7370080;19;20021;-63
2023/02/16 02:07:55;;;;;;;66.85;45.65;;;3.90;99.90;;;;;;7371846;19;20082;-63
2023/02/16 02:10:49;;;;;;;69.90;47.10;;;3.90;99.90;;;;;;7369203;19;20039;-63
2023/02/16 02:13:20;;;;;;;73.88;48.10;;;3.90;99.90;;;;;;7370851;19;20019;-63
2023/02/16 02:15:47;;;;;;;67.93;44.10;;;3.90;99.90;;;;;;7367360;19;20025;-63
2023/02/16 02:18:13;;;;;;;70.03;45.70;;;3.90;99.90;;;;;;7370455;19;20022;-63
2023/02/16 02:24:14;;;;;;;67.30;45.45;;;3.80;99.90;;;;;;7371224;19;20020;-63
2023/02/16 02:27:11;;;;;;;68.97;47.30;;;3.80;99.90;;;;;;7368765;19;20020;-63
2023/02/16 02:30:00;;;;;;;69.65;46.88;;;3.70;99.90;;;;;;7367925;19;20029;-62
2023/02/16 02:32:33;;;;;;;70.60;47.17;;;3.70;99.90;;;;;;7377805;19;20055;-63
2023/02/16 02:35:44;;;;;;;69.53;47.63;;;3.70;99.90;;;;;;7378890;19;20036;-63
2023/02/16 02:38:20;;;;;;;68.22;47.67;;;3.70;99.90;;;;;;7383168;19;20010;-63
2023/02/16 02:40:58;;;;;;;68.80;47.75;;;3.60;99.90;;;;;;7380667;19;20022;-63
2023/02/16 02:43:51;;;;;;;70.00;47.97;;;3.60;99.90;;;;;;7379280;19;20457;-63
2023/02/16 02:46:30;;;;;;;68.40;48.13;;;3.60;99.90;;;;;;7378037;19;20018;-64
2023/02/16 02:48:57;;;;;;;71.20;46.63;;;3.50;99.90;;;;;;7378249;19;20048;-63
2023/02/16 02:51:30;;;;;;;75.30;49.97;;;3.50;99.90;;;;;;7376092;19;20504;-63
2023/02/16 03:00:39;;;;;;;77.97;50.55;;;3.60;99.90;;;;;;7380645;19;20022;-63
2023/02/16 03:03:13;;;;;;;73.65;51.08;;;3.50;99.90;;;;;;7382387;19;20495;-63
2023/02/16 03:05:48;;;;;;;80.47;52.58;;;3.50;99.90;;;;;;7380686;19;20019;-63
2023/02/16 03:08:19;;;;;;;71.43;50.75;;;3.60;99.90;;;;;;7374005;19;20081;-63
2023/02/16 03:13:47;;;;;;;79.18;52.85;;;3.50;99.90;;;;;;7373888;19;20011;-63
2023/02/16 03:16:29;;;;;;;82.35;53.10;;;3.60;99.90;;;;;;7369237;19;20015;-63
2023/02/16 03:30:10;;;;;;;83.40;52.70;;;3.70;99.90;;;;;;7373326;19;20014;-63
2023/02/16 03:32:54;;;;;;;81.75;54.95;;;3.70;99.90;;;;;;7375188;19;20022;-63
2023/02/16 03:35:20;;;;;;;85.18;54.30;;;3.80;99.90;;;;;;7375494;19;20057;-63
2023/02/16 03:37:47;;;;;;;85.03;55.33;;;3.80;99.90;;;;;;7376488;19;20042;-62
2023/02/16 03:40:28;;;;;;;77.43;52.78;;;3.90;99.90;;;;;;7376786;19;20078;-63
2023/02/16 03:42:57;;;;;;;77.78;51.67;;;3.90;99.90;;;;;;7372748;19;20019;-63
2023/02/16 03:45:23;;;;;;;82.32;55.60;;;4.00;99.90;;;;;;7374084;19;20040;-63
2023/02/16 03:47:52;;;;;;;83.20;53.13;;;4.00;99.90;;;;;;7375281;19;20117;-63
2023/02/16 03:50:19;;;;;;;76.72;54.40;;;4.10;99.90;;;;;;7382399;19;20098;-63
2023/02/16 03:52:45;;;;;;;80.35;52.85;;;4.20;99.90;;;;;;7379526;19;20026;-63
2023/02/16 03:55:12;;;;;;;85.10;54.92;;;4.20;99.90;;;;;;7376288;19;20073;-63
2023/02/16 03:57:38;;;;;;;82.25;55.70;;;4.30;99.90;;;;;;7378599;19;20361;-63
2023/02/16 04:00:05;;;;;;;76.95;54.25;;;4.30;99.90;;;;;;7374919;19;20022;-62
2023/02/16 04:02:39;;;;;;;79.25;53.35;;;4.40;99.90;;;;;;7380212;19;20018;-63
2023/02/16 04:05:06;;;;;;;81.60;55.65;;;4.40;99.90;;;;;;7373372;19;20029;-63
2023/02/16 04:07:32;;;;;;;79.47;53.67;;;4.40;99.90;;;;;;7376554;19;20018;-63
2023/02/16 04:09:59;;;;;;;82.45;55.85;;;4.50;99.90;;;;;;7379385;19;20018;-62
2023/02/16 04:12:37;;;;;;;80.18;53.50;;;4.50;99.90;;;;;;7374006;19;20758;-62
2023/02/16 04:15:12;;;;;;;80.68;53.72;;;4.50;99.90;;;;;;7375067;19;20022;-62
2023/02/16 04:17:39;;;;;;;82.00;56.58;;;4.60;99.90;;;;;;7372074;19;20663;-62
2023/02/16 04:20:07;;;;;;;85.15;56.47;;;4.60;99.90;;;;;;7371888;19;20030;-62
2023/02/16 04:22:34;;;;;;;77.75;54.47;;;4.60;99.90;;;;;;7371175;19;20015;-62
2023/02/16 04:25:00;;;;;;;83.90;55.92;;;4.70;99.90;;;;;;7374098;19;20043;-62
2023/02/16 04:27:26;;;;;;;76.63;53.33;;;4.70;99.90;;;;;;7377109;19;20015;-62
2023/02/16 04:29:53;;;;;;;78.70;54.40;;;4.70;99.90;;;;;;7380190;19;20025;-63
2023/02/16 04:32:19;;;;;;;77.13;55.08;;;4.80;99.90;;;;;;7378750;19;20493;-62
2023/02/16 04:34:45;;;;;;;80.45;55.85;;;4.80;99.90;;;;;;7378165;19;20747;-64
2023/02/16 04:37:14;;;;;;;82.07;55.85;;;4.80;99.90;;;;;;7374940;19;20493;-63
2023/02/16 04:39:40;;;;;;;80.60;55.13;;;4.80;99.90;;;;;;7380283;19;20019;-63
2023/02/16 04:42:07;;;;;;;82.65;56.20;;;4.90;99.90;;;;;;7376630;19;20033;-63
2023/02/16 04:44:33;;;;;;;80.18;57.35;;;4.90;99.90;;;;;;7379824;19;20041;-62
2023/02/16 04:46:59;;;;;;;78.88;56.50;;;4.90;99.90;;;;;;7374173;19;20480;-63
2023/02/16 04:49:26;;;;;;;79.35;55.92;;;5.00;99.90;;;;;;7375111;19;20461;-63
2023/02/16 04:51:53;;;;;;;79.90;56.47;;;5.00;99.90;;;;;;7372107;19;20018;-63
2023/02/16 04:54:19;;;;;;;83.00;56.33;;;5.00;99.90;;;;;;7373242;19;20061;-64
2023/02/16 04:56:48;;;;;;;76.55;54.67;;;5.00;99.90;;;;;;7368811;19;20705;-63
2023/02/16 04:59:15;;;;;;;79.80;55.63;;;5.00;99.90;;;;;;7378300;19;20111;-63
2023/02/16 05:01:42;;;;;;;81.65;56.60;;;5.10;99.90;;;;;;7379359;19;20011;-64
2023/02/16 05:04:08;;;;;;;79.28;56.20;;;5.10;99.90;;;;;;7379862;19;20680;-64
2023/02/16 05:06:35;;;;;;;80.05;57.83;;;5.10;99.90;;;;;;7378721;19;20025;-64
2023/02/16 05:09:03;;;;;;;81.15;55.33;;;5.10;99.90;;;;;;7377497;19;20086;-63
2023/02/16 05:14:41;;;;;;;75.32;54.15;;;5.10;99.90;;;;;;7377001;19;20018;-63
2023/02/16 05:17:18;;;;;;;81.32;54.92;;;5.20;99.90;;;;;;7376156;19;20026;-64
2023/02/16 05:19:48;;;;;;;85.55;58.17;;;5.20;99.90;;;;;;7381034;19;20845;-64
2023/02/16 05:22:15;;;;;;;78.95;55.67;;;5.20;99.90;;;;;;7373532;19;20014;-64
2023/02/16 05:24:43;;;;;;;80.13;55.33;;;5.20;99.90;;;;;;7377202;19;20082;-64
2023/02/16 05:27:16;;;;;;;82.25;56.25;;;5.20;99.90;;;;;;7373671;19;20869;-64
2023/02/16 05:29:42;;;;;;;74.93;54.75;;;5.20;99.90;;;;;;7375229;19;20025;-64
2023/02/16 05:32:09;;;;;;;83.28;57.45;;;5.30;99.90;;;;;;7376501;19;20102;-64
2023/02/16 05:34:36;;;;;;;73.00;54.03;;;5.30;99.90;;;;;;7378414;19;20031;-64
2023/02/16 05:37:03;;;;;;;70.72;53.22;;;5.30;99.90;;;;;;7376939;19;20888;-64
2023/02/16 05:39:29;;;;;;;75.18;54.92;;;5.40;99.90;;;;;;7379392;19;20014;-64
2023/02/16 05:41:56;;;;;;;72.97;54.45;;;5.40;99.90;;;;;;7373927;19;20026;-64
2023/02/16 05:44:22;;;;;;;80.50;55.05;;;5.40;99.90;;;;;;7372507;19;20030;-64
2023/02/16 05:46:49;;;;;;;77.55;56.40;;;5.50;99.90;;;;;;7373453;19;20091;-64
2023/02/16 05:49:16;;;;;;;76.82;54.50;;;5.50;99.90;;;;;;7369237;19;20015;-64
2023/02/16 05:51:44;;;;;;;75.93;55.30;;;5.50;99.90;;;;;;7367270;19;20018;-62
2023/02/16 05:54:16;;;;;;;77.90;56.60;;;5.50;99.90;;;;;;7375026;19;20047;-62
2023/02/16 05:56:44;;;;;;;74.93;56.65;;;5.50;99.90;;;;;;7378326;19;20022;-62
2023/02/16 05:59:11;;;;;;;80.53;55.40;;;5.50;99.90;;;;;;7375485;19;20624;-62
2023/02/16 06:01:39;;;;;;;77.15;56.13;;;5.50;99.90;;;;;;7377211;19;20766;-62
2023/02/16 06:04:11;;;;;;;73.18;54.33;;;5.50;99.90;;;;;;7373906;19;20027;-62
2023/02/16 06:06:38;;;;;;;75.35;54.83;;;5.50;99.90;;;;;;7376666;19;20026;-62
2023/02/16 06:09:07;;;;;;;81.25;56.08;;;5.50;99.90;;;;;;7375950;19;20029;-62
2023/02/16 06:11:37;;;;;;;73.95;54.45;;;5.50;99.90;;;;;;7375437;19;20023;-62
2023/02/16 06:14:09;;;;;;;77.80;55.92;;;5.50;99.90;;;;;;7377794;19;20014;-62
2023/02/16 06:16:38;;;;;;;74.20;54.70;;;5.50;99.90;;;;;;7371994;19;20018;-62
2023/02/16 06:19:05;;;;;;;69.93;50.95;;;5.50;99.90;;;;;;7369786;19;20397;-62
2023/02/16 06:21:33;;;;;;;75.47;56.00;;;5.50;99.90;;;;;;7370979;19;20511;-62
2023/02/16 06:23:59;;;;;;;73.68;55.03;;;5.50;99.90;;;;;;7367272;19;20014;-62
2023/02/16 06:26:26;;;;;;;75.55;54.42;;;5.50;99.90;;;;;;7374878;19;20587;-62
2023/02/16 06:28:53;;;;;;;73.38;53.40;;;5.60;99.90;;;;;;7374024;19;20085;-62
2023/02/16 06:31:19;;;;;;;76.28;54.70;;;5.60;99.90;;;;;;7374077;19;20714;-62
2023/02/16 06:33:46;;;;;;;70.47;52.00;;;5.60;99.90;;;;;;7373752;19;20018;-62
2023/02/16 06:36:13;;;;;;;71.43;52.10;;;5.60;99.90;;;;;;7375430;19;20023;-63
2023/02/16 06:38:46;;;;;;;73.38;53.53;;;5.60;99.90;;;;;;7376614;19;20042;-63
2023/02/16 06:41:29;;;;;;;80.25;56.10;;;5.60;99.90;;;;;;7375643;19;20018;-63
2023/02/16 06:44:01;;;;;;;68.35;51.75;;;5.60;99.90;;;;;;7378247;19;20387;-64
2023/02/16 06:46:27;;;;;;;76.07;54.10;;;5.60;99.90;;;;;;7378636;19;20021;-63
2023/02/16 06:48:54;;;;;;;71.38;54.53;;;5.70;99.90;;;;;;7376399;19;20126;-63
2023/02/16 06:51:21;;;;;;;77.68;55.83;;;5.70;99.90;;;;;;7370685;19;20514;-63
2023/02/16 06:53:49;;;;;;;73.97;54.10;;;5.60;99.90;;;;;;7370530;19;20017;-63
2023/02/16 06:56:15;;;;;;;74.10;55.15;;;5.60;99.90;;;;;;7368664;19;20650;-63
2023/02/16 06:58:41;;;;;;;75.28;54.65;;;5.60;99.90;;;;;;7369444;19;20018;-63
2023/02/16 07:01:10;;;;;;;80.10;53.42;;;5.60;99.90;;;;;;7367858;19;20018;-63
2023/02/16 07:03:52;;;;;;;75.75;57.60;;;5.70;99.90;;;;;;7366811;19;20183;-63
2023/02/16 07:06:19;;;;;;;76.63;55.53;;;5.70;99.90;;;;;;7365551;19;20019;-64
2023/02/16 07:08:45;;;;;;;74.63;54.30;;;5.70;99.90;;;;;;7367443;19;20118;-63
2023/02/16 07:11:12;;;;;;;77.15;57.22;;;5.70;99.90;;;;;;7362566;19;20082;-63
2023/02/16 07:13:40;;;;;;;76.15;55.78;;;5.80;99.90;;;;;;7375081;19;20381;-63
2023/02/16 07:16:06;;;;;;;79.07;57.15;;;5.80;99.90;;;;;;7369585;19;20018;-63
2023/02/16 07:18:34;;;;;;;76.70;55.22;;;5.80;99.90;;;;;;7374134;19;20077;-63
2023/02/16 07:21:00;;;;;;;81.70;56.80;;;5.90;99.90;;;;;;7376313;19;20061;-63
2023/02/16 07:23:27;;;;;;;74.22;55.35;;;5.90;99.90;;;;;;7378803;19;20036;-63
2023/02/16 07:25:54;;;;;;;77.72;56.83;;;5.90;99.90;;;;;;7380573;19;20097;-64
2023/02/16 07:28:20;;;;;;;75.05;57.97;;;6.00;99.90;;;;;;7378359;19;20087;-63
2023/02/16 07:30:47;;;;;;;73.03;53.45;;;6.00;99.90;;;;;;7375703;19;20023;-64
2023/02/16 07:33:14;;;;;;;76.57;57.15;;;6.00;99.90;;;;;;7378457;19;20659;-62
2023/02/16 07:35:42;;;;;;;75.93;57.25;;;6.10;99.90;;;;;;7373690;19;20031;-64
2023/02/16 07:38:08;;;;;;;74.70;55.63;;;6.10;99.90;;;;;;7374394;19;20082;-64
2023/02/16 07:40:35;;;;;;;74.63;55.40;;;6.10;99.90;;;;;;7377470;19;20063;-64
2023/02/16 07:43:03;;;;;;;74.25;57.50;;;6.20;99.90;;;;;;7373364;19;20024;-63
2023/02/16 07:45:32;;;;;;;72.15;54.03;;;6.20;99.90;;;;;;7383639;19;20023;-64
2023/02/16 07:48:00;;;;;;;72.57;54.17;;;6.30;99.90;;;;;;7380357;19;20057;-63
2023/02/16 07:50:26;;;;;;;72.30;54.92;;;6.30;99.90;;;;;;7380045;19;20531;-62
2023/02/16 07:52:53;;;;;;;77.65;57.15;;;6.30;99.90;;;;;;7374988;19;20021;-62
2023/02/16 07:55:20;;;;;;;71.35;53.90;;;6.30;99.90;;;;;;7373248;19;20011;-62
2023/02/16 07:57:48;;;;;;;73.05;53.60;;;6.40;99.90;;;;;;7380461;19;20082;-62
2023/02/16 08:00:14;;;;;;;73.75;55.63;;;6.40;99.90;;;;;;7378027;19;20026;-63
2023/02/16 08:02:41;;;;;;;73.88;56.10;;;6.40;99.90;;;;;;7378808;19;20104;-64
2023/02/16 08:05:08;;;;;;;72.90;55.15;;;6.40;99.90;;;;;;7376034;19;20018;-64
2023/02/16 08:07:34;;;;;;;70.78;54.33;;;6.50;99.90;;;;;;7380861;19;20022;-64
2023/02/16 08:10:01;;;;;;;67.72;54.53;;;6.50;99.90;;;;;;7371726;19;20022;-64
2023/02/16 08:12:27;;;;;;;70.38;54.25;;;6.40;99.90;;;;;;7373583;19;20373;-65
2023/02/16 08:14:56;;;;;;;73.47;55.58;;;6.50;99.90;;;;;;7374096;19;20019;-65
2023/02/16 08:17:22;;;;;;;71.95;54.30;;;6.50;99.90;;;;;;7373127;19;20015;-64
2023/02/16 08:19:49;;;;;;;72.00;55.55;;;6.50;99.90;;;;;;7376635;19;20011;-64
2023/02/16 08:22:17;;;;;;;72.60;55.50;;;6.50;99.90;;;;;;7371574;19;20019;-63
2023/02/16 08:24:44;;;;;;;74.10;55.92;;;6.50;99.90;;;;;;7374239;19;20015;-63
2023/02/16 08:27:10;;;;;;;70.05;55.70;;;6.50;99.90;;;;;;7371940;19;20019;-63
2023/02/16 08:29:37;;;;;;;68.68;54.28;;;6.50;99.90;;;;;;7366816;19;20034;-62
2023/02/16 08:32:06;;;;;;;70.78;55.58;;;6.50;99.90;;;;;;7362267;19;20010;-62
2023/02/16 08:34:33;;;;;;;75.75;56.60;;;6.50;99.90;;;;;;7371653;19;20030;-64
2023/02/16 08:37:08;;;;;;;72.07;56.38;;;6.50;99.90;;;;;;7371225;19;20014;-64
2023/02/16 08:39:35;;;;;;;74.03;56.83;;;6.50;99.90;;;;;;7374589;19;20037;-63
2023/02/16 08:42:03;;;;;;;74.30;58.67;;;6.50;99.90;;;;;;7370452;19;20041;-63
2023/02/16 08:44:30;;;;;;;76.88;58.63;;;6.50;99.90;;;;;;7365031;19;20085;-64
2023/02/16 08:46:59;;;;;;;77.30;59.05;;;6.50;99.90;;;;;;7376381;19;20018;-64
2023/02/16 08:49:26;;;;;;;76.97;58.85;;;6.50;99.90;;;;;;7374672;19;20014;-65
2023/02/16 08:51:55;;;;;;;73.38;57.38;;;6.50;99.90;;;;;;7372726;19;20049;-64
2023/02/16 08:54:26;;;;;;;75.75;58.95;;;6.50;99.90;;;;;;7366410;19;20022;-63
2023/02/16 08:56:58;;;;;;;78.75;60.55;;;6.50;99.90;;;;;;7366038;19;20576;-61
2023/02/16 08:59:27;;;;;;;78.82;57.83;;;6.50;99.90;;;;;;7364382;19;20114;-63
2023/02/16 09:01:55;;;;;;;78.35;58.92;;;6.50;99.90;;;;;;7371485;19;20107;-64
2023/02/16 09:04:23;;;;;;;80.38;60.70;;;6.50;99.90;;;;;;7372808;19;20561;-65
2023/02/16 09:06:51;;;;;;;80.93;60.83;;;6.50;99.90;;;;;;7372622;19;20022;-65
2023/02/16 09:09:18;;;;;;;78.38;59.90;;;6.60;99.90;;;;;;7370809;19;20019;-65
2023/02/16 09:11:45;;;;;;;79.90;59.70;;;6.60;99.90;;;;;;7379242;19;20022;-65
2023/02/16 09:14:12;;;;;;;81.53;59.70;;;6.60;99.90;;;;;;7375156;19;20398;-65
2023/02/16 09:16:44;;;;;;;76.95;59.67;;;6.60;99.90;;;;;;7378406;19;20045;-66
2023/02/16 09:19:20;;;;;;;78.00;61.28;;;6.60;99.90;;;;;;7379389;19;20031;-65
2023/02/16 09:21:55;;;;;;;78.15;60.10;;;6.60;99.90;;;;;;7378087;19;20556;-64
2023/02/16 09:24:21;;;;;;;74.03;53.28;;;6.70;99.90;;;;;;7374331;19;20500;-64
2023/02/16 09:26:48;;;;;;;80.38;58.85;;;6.70;99.90;;;;;;7376470;19;20019;-64
2023/02/16 09:29:14;;;;;;;82.45;60.35;;;6.70;99.90;;;;;;7372288;19;20019;-65
2023/02/16 09:31:43;;;;;;;73.93;56.28;;;6.70;99.90;;;;;;7375906;19;20022;-63
2023/02/16 09:34:18;;;;;;;79.38;56.88;;;6.70;99.90;;;;;;7373058;19;20043;-63
2023/02/16 09:36:46;;;;;;;78.63;59.72;;;6.80;99.90;;;;;;7375316;19;20461;-65
2023/02/16 09:39:13;;;;;;;82.82;61.45;;;6.80;99.90;;;;;;7373938;19;20025;-65
2023/02/16 09:41:54;;;;;;;72.97;56.50;;;6.80;99.90;;;;;;7369900;19;20102;-64
2023/02/16 09:44:42;;;;;;;77.22;60.40;;;6.80;99.90;;;;;;7370043;19;20018;-64
2023/02/16 09:47:21;;;;;;;80.43;59.10;;;6.90;99.90;;;;;;7369719;19;20056;-64
2023/02/16 09:49:48;;;;;;;76.45;57.83;;;6.90;99.90;;;;;;7370976;19;20072;-65
2023/02/16 09:52:39;;;;;;;80.88;58.35;;;6.90;99.90;;;;;;7368419;19;20011;-64
2023/02/16 09:55:16;;;;;;;90.88;63.08;;;6.90;99.90;;;;;;7368919;19;20030;-64
2023/02/16 09:57:55;;;;;;;78.00;59.38;;;6.90;99.90;;;;;;7369651;19;20023;-64
2023/02/16 10:00:33;;;;;;;76.70;60.22;;;6.90;99.90;;;;;;7374259;19;20018;-64
2023/02/16 10:03:39;;;;;;;87.88;63.17;;;6.90;99.90;;;;;;7373409;19;20089;-64
2023/02/16 10:06:15;;;;;;;87.05;60.95;;;6.90;99.90;;;;;;7374200;19;20018;-64
2023/02/16 10:09:01;;;;;;;81.10;62.47;;;7.00;99.90;;;;;;7377060;19;20018;-65
2023/02/16 10:11:37;;;;;;;77.00;62.15;;;7.00;99.90;;;;;;7375777;19;20014;-65
2023/02/16 10:14:29;;;;;;;81.53;63.78;;;7.00;99.90;;;;;;7375740;19;20014;-65
2023/02/16 10:17:28;;;;;;;85.45;65.38;;;7.00;99.90;;;;;;7376698;19;20018;-65
2023/02/16 10:20:02;;;;;;;88.85;66.07;;;7.00;99.90;;;;;;7371633;19;20022;-66
2023/02/16 10:22:35;;;;;;;87.53;68.03;;;7.10;99.90;;;;;;7370277;19;20054;-64
2023/02/16 10:25:20;;;;;;;85.85;64.30;;;7.10;99.90;;;;;;7374010;19;20026;-64
2023/02/16 10:27:53;;;;;;;85.93;67.47;;;7.00;99.90;;;;;;7375835;19;20115;-64
2023/02/16 10:30:22;;;;;;;91.20;66.88;;;7.00;99.90;;;;;;7368812;19;20496;-64
2023/02/16 10:33:14;;;;;;;93.80;66.60;;;7.00;99.90;;;;;;7371185;19;20025;-65
2023/02/16 10:35:51;;;;;;;92.32;67.78;;;7.00;99.90;;;;;;7371761;19;20018;-64
2023/02/16 10:38:27;;;;;;;87.43;66.68;;;7.20;99.90;;;;;;7374482;19;20017;-65
2023/02/16 10:41:19;;;;;;;98.75;73.75;;;7.20;99.90;;;;;;7371995;19;20611;-64
2023/02/16 10:43:57;;;;;;;99.18;72.32;;;7.30;99.90;;;;;;7373768;19;21489;-64
2023/02/16 10:46:35;;;;;;;95.25;70.60;;;7.30;99.90;;;;;;7371077;19;20014;-63
2023/02/16 10:49:02;;;;;;;93.43;71.57;;;7.40;99.90;;;;;;7372987;19;20014;-64
2023/02/16 10:51:35;;;;;;;92.75;70.03;;;7.40;99.90;;;;;;7376296;19;20354;-63
2023/02/16 10:54:30;;;;;;;93.25;73.80;;;7.30;99.90;;;;;;7379942;19;20006;-64
2023/02/16 10:57:04;;;;;;;93.68;70.68;;;7.30;99.90;;;;;;7383315;19;20041;-64
2023/02/16 10:59:37;;;;;;;94.32;70.60;;;7.30;99.90;;;;;;7380224;19;20050;-64
2023/02/16 11:02:26;;;;;;;96.03;73.38;;;7.30;99.90;;;;;;7378736;19;20026;-64
2023/02/16 11:04:54;;;;;;;96.10;72.47;;;7.30;99.90;;;;;;7376931;19;20086;-64
2023/02/16 11:07:27;;;;;;;99.13;72.95;;;7.20;99.90;;;;;;7374475;19;20015;-64
2023/02/16 11:09:56;;;;;;;100.20;72.18;;;7.20;99.90;;;;;;7376122;19;20627;-67
2023/02/16 11:12:27;;;;;;;102.22;75.45;;;7.20;99.90;;;;;;7375196;19;20041;-64
2023/02/16 11:14:58;;;;;;;100.07;72.90;;;7.30;99.90;;;;;;7373940;19;20022;-64
2023/02/16 11:17:30;;;;;;;102.25;75.38;;;7.30;99.90;;;;;;7377233;19;20015;-63
2023/02/16 11:20:08;;;;;;;108.43;78.88;;;7.30;99.90;;;;;;7376352;19;20093;-64
2023/02/16 11:22:36;;;;;;;105.10;76.65;;;7.40;99.90;;;;;;7373276;19;20396;-64
2023/02/16 11:25:32;;;;;;;96.93;73.50;;;7.40;99.90;;;;;;7374744;19;20143;-64
2023/02/16 11:28:02;;;;;;;95.32;72.70;;;7.40;99.90;;;;;;7372865;19;20025;-63
2023/02/16 11:30:33;;;;;;;102.70;72.78;;;7.40;99.90;;;;;;7376212;19;20018;-64
2023/02/16 11:33:03;;;;;;;102.25;73.28;;;7.50;99.90;;;;;;7377196;19;20409;-64
2023/02/16 11:35:31;;;;;;;102.68;75.45;;;7.50;99.90;;;;;;7371439;19;20019;-65
2023/02/16 11:37:59;;;;;;;96.65;72.13;;;7.50;99.90;;;;;;7378221;19;20010;-65
2023/02/16 11:40:32;;;;;;;101.55;71.82;;;7.60;99.90;;;;;;7372991;19;20041;-65
2023/02/16 11:43:00;;;;;;;98.05;72.63;;;7.60;99.90;;;;;;7378632;19;20029;-65
2023/02/16 11:45:33;;;;;;;93.00;69.70;;;7.60;99.90;;;;;;7375426;19;20028;-65
2023/02/16 11:48:02;;;;;;;100.78;75.25;;;7.70;99.90;;;;;;7376221;19;20010;-64
2023/02/16 11:50:34;;;;;;;98.25;74.30;;;7.70;99.90;;;;;;7374556;19;20019;-64
2023/02/16 11:53:10;;;;;;;;;;;7.70;99.90;;;;;;7374962;19;20014;-64
2023/02/16 11:55:40;;;;;;;106.85;74.60;;;7.70;99.90;;;;;;7371949;19;20002;-64
2023/02/16 11:58:18;;;;;;;102.85;75.35;;;7.80;99.90;;;;;;7374966;19;20018;-64
2023/02/16 12:00:56;;;;;;;97.93;73.25;;;7.80;99.90;;;;;;7374082;19;20051;-63
2023/02/16 12:03:42;;;;;;;93.57;71.03;;;7.80;99.90;;;;;;7373017;19;20015;-64
2023/02/16 12:06:30;;;;;;;109.03;75.80;;;7.80;99.90;;;;;;7375075;19;20018;-63
2023/02/16 12:09:15;;;;;;;101.68;72.57;;;7.90;99.90;;;;;;7378233;19;20670;-63
2023/02/16 12:11:52;;;;;;;100.78;72.57;;;8.00;99.90;;;;;;7377862;19;20020;-64
2023/02/16 12:14:33;;;;;;;93.38;71.57;;;8.10;99.90;;;;;;7375293;19;20021;-64
2023/02/16 12:17:11;;;;;;;95.22;75.35;;;8.30;99.90;;;;;;7380250;19;20010;-64
2023/02/16 12:19:40;;;;;;;96.15;73.65;;;8.40;99.90;;;;;;7378157;19;20466;-64
2023/02/16 12:22:13;;;;;;;91.90;72.50;;;8.60;99.90;;;;;;7380785;19;20086;-64
2023/02/16 12:24:58;;;;;;;88.97;72.32;;;8.90;99.90;;;;;;7378923;19;20015;-64
2023/02/16 12:27:36;;;;;;;84.75;68.15;;;9.50;99.90;;;;;;7376482;19;20706;-63
2023/02/16 12:30:07;;;;;;;78.68;64.18;;;10.10;99.90;;;;;;7375789;19;20529;-64
2023/02/16 12:33:06;;;;;;;76.78;64.05;;;10.40;99.90;;;;;;7373068;19;20011;-63
2023/02/16 12:35:57;;;;;;;71.70;60.88;;;10.70;99.90;;;;;;7369169;19;20810;-64
2023/02/16 12:38:47;;;;;;;73.78;58.90;;;11.90;99.90;;;;;;7371822;19;20019;-65
2023/02/16 12:41:31;;;;;;;62.13;54.40;;;12.40;99.90;;;;;;7370847;19;20022;-65
2023/02/16 12:44:14;;;;;;;60.60;52.90;;;12.50;99.90;;;;;;7376033;19;20010;-65
2023/02/16 12:46:43;;;;;;;60.70;51.88;;;12.00;99.90;;;;;;7372213;19;20032;-65
2023/02/16 12:49:13;;;;;;;64.80;53.80;;;12.10;99.90;;;;;;7377511;19;20047;-66
2023/02/16 12:51:51;;;;;;;61.50;52.55;;;12.10;99.90;;;;;;7380257;19;20030;-67
2023/02/16 12:54:32;;;;;;;60.38;50.50;;;12.10;99.90;;;;;;7381040;19;20082;-66
2023/02/16 12:57:06;;;;;;;56.53;48.60;;;12.70;99.90;;;;;;7380445;19;20019;-67
2023/02/16 13:00:01;;;;;;;56.10;50.03;;;13.20;99.90;;;;;;7382717;19;20019;-67
2023/02/16 13:02:45;;;;;;;53.28;47.17;;;13.60;99.90;;;;;;7385936;19;20087;-66
2023/02/16 13:05:27;;;;;;;54.00;48.20;;;14.10;99.90;;;;;;7380983;19;20018;-67
2023/02/16 13:08:06;;;;;;;52.90;47.20;;;14.40;99.90;;;;;;7386882;19;20431;-67
2023/02/16 13:10:38;;;;;;;52.25;45.47;;;14.10;99.90;;;;;;7385567;19;20015;-67
2023/02/16 13:13:24;;;;;;;52.45;46.30;;;14.40;99.90;;;;;;7391058;19;20033;-68
2023/02/16 13:16:30;;;;;;;44.72;39.40;;;14.70;99.90;;;;;;7377766;19;20035;-67
2023/02/16 13:18:57;;;;;;;46.78;39.78;;;15.10;99.90;;;;;;7363880;19;20014;-65
2023/02/16 13:21:54;;;;;;;48.90;41.22;;;14.70;99.90;;;;;;7363721;19;20047;-66
2023/02/16 13:25:13;;;;;;;43.38;38.67;;;15.30;99.90;;;;;;7359494;19;20059;-66
2023/02/16 13:27:50;;;;;;;44.05;37.80;;;15.20;99.90;;;;;;7359228;19;20038;-65
2023/02/16 13:30:35;;;;;;;43.55;38.83;;;14.80;99.90;;;;;;7361651;19;20025;-66
2023/02/16 13:34:00;;;;;;;45.05;39.67;;;14.30;99.90;;;;;;7362590;19;20901;-66
2023/02/16 13:37:22;;;;;;;47.38;37.97;;;13.80;99.90;;;;;;7358306;19;20025;-65
2023/02/16 13:40:09;;;;;;;49.50;43.00;;;13.00;99.90;;;;;;7361285;19;20538;-54
2023/02/16 13:42:53;;;;;;;51.88;45.15;;;12.60;99.90;;;;;;7361271;19;20038;-64